CheckWX is a tool to help pilots better visualize weather data.  It is not intended as a substitute for an official pre-flight weather briefing.

18:40:21 UTC

SCVM METAR
Viña del mar Airport
Viña Del Mar, Chile
Current

40 mins ago

SCVM 061800Z 33012KT CAVOK 21/12 Q1015
Observed
Apr-6 @ 18:00 UTC
Wind
  • 330° at 12 KTS
Visibility
10,000+ meters
Flight Rules
VFR
Cloud Levels
  • Clear skies
Temperature
21°C / 70°F
Dewpoint
12°C / 54°F
Humidity
57%
Altimeter
29.97" Hg
Pressure
1014.92 hPa
Previous

2 hours ago

SCVM 061700Z 33012KT CAVOK 21/11 Q1015
Observed
Apr-6 @ 17:00 UTC
Wind
  • 330° at 12 KTS
Visibility
10,000+ meters
Flight Rules
VFR
Cloud Levels
  • Clear skies
Temperature
21°C / 70°F
Dewpoint
11°C / 52°F
Humidity
53%
Altimeter
29.97" Hg
Pressure
1014.92 hPa
Previous

3 hours ago

SCVM 061600Z 34010KT CAVOK 20/11 Q1015
Observed
Apr-6 @ 16:00 UTC
Wind
  • 340° at 10 KTS
Visibility
10,000+ meters
Flight Rules
VFR
Cloud Levels
  • Clear skies
Temperature
20°C / 68°F
Dewpoint
11°C / 52°F
Humidity
56%
Altimeter
29.97" Hg
Pressure
1014.92 hPa